Flight Track Log - Related Links

Times and Time Zones

All times are in EST time to prevent confusion due to time zone crossing. See the EJA922 flight status page for this flight to view local times or setup timezone preferences in your user account.

Time Position Orientation Groundspeed Altitude Reporting Facility
EST Latitude Longitude Course Direction KTS MPH feet Rate Location/Type
Thu 10:14:20 AM 40.8225 -74.1192 240° Southwest 187 215 1,500  Level New York Center
Thu 10:15:20 AM 40.8025 -74.1650 240° Southwest 190 219 2,200 1,750 Climbing New York Center
Thu 10:16:20 AM 40.7453 -74.1950 202° Southwest 251 289 5,000 2,850 Climbing New York Center
Thu 10:17:20 AM 40.6692 -74.2350 202° Southwest 272 313 7,900 3,000 Climbing New York Center
Thu 10:18:20 AM 40.6239 -74.2872 221° Southwest 269 310 11,000 2,550 Climbing New York Center
Thu 10:19:20 AM 40.5308 -74.3317 200° South 354 407 13,000 2,150 Climbing New York Center
Thu 10:20:20 AM 40.4683 -74.2575 138° Southeast 390 449 15,300 2,000 Climbing New York Center
Thu 10:21:20 AM 40.3706 -74.1872 151° Southeast 380 437 17,000 850 Climbing New York Center
Thu 10:22:20 AM 40.2814 -74.1719 173° South 367 422 17,000  Level New York Center
Thu 10:23:20 AM 40.1825 -74.2022 193° South 344 396 17,000  Level New York Center
Thu 10:24:20 AM 40.0878 -74.2300 193° South 344 396 17,000 700 Level New York Center
Thu 10:25:20 AM 39.9950 -74.2661 197° South 351 404 18,400 2,011 Climbing New York Center
Thu 10:27:25 AM 39.8517 -74.4347 222° Southwest 357 411 23,200 2,368 Climbing Washington Center
Thu 10:28:25 AM 39.7733 -74.5333 224° Southwest 382 440 25,700 2,644 Climbing Washington Center
Thu 10:29:23 AM 39.6950 -74.6289 223° Southwest 393 452 28,400 2,593 Climbing Washington Center
Thu 10:30:23 AM 39.6144 -74.7294 224° Southwest 399 459 30,800 1,700 Climbing Washington Center
Thu 10:31:23 AM 39.5319 -74.8328 224° Southwest 404 465 31,800 1,000 Climbing Washington Center
Thu 10:32:23 AM 39.4389 -74.9467 223° Southwest 431 496 32,800 992 Climbing Washington Center
Thu 10:33:24 AM 39.3414 -75.0628 223° Southwest 460 529 33,800 595 Climbing Washington Center
Thu 10:34:24 AM 39.2231 -75.1442 208° Southwest 478 550 34,000 500 Climbing Washington Center
Thu 10:35:24 AM 39.0897 -75.2064 200° South 483 556 34,800 1,041 Climbing Washington Center
Thu 10:36:25 AM 38.9608 -75.2581 197° South 488 562 36,100 1,361 Climbing Washington Center
Thu 10:37:23 AM 38.8358 -75.3092 198° South 483 556 37,500 1,462 Climbing Washington Center
Thu 10:38:24 AM 38.7128 -75.3603 198° South 483 556 39,000 1,240 Climbing Washington Center
Thu 10:39:24 AM 38.5858 -75.4083 196° South 483 556 40,000 496 Climbing Washington Center
Thu 10:40:25 AM 38.4586 -75.4617 198° South 483 556 40,000  Level Washington Center
Thu 10:41:25 AM 38.3317 -75.5228 201° Southwest 483 556 40,000  Level Washington Center
Thu 10:42:23 AM 38.2086 -75.5944 205° Southwest 483 556 40,000  Level Washington Center
Thu 10:43:23 AM 38.0875 -75.6736 207° Southwest 483 556 40,000  Level Washington Center
Thu 10:44:24 AM 37.9708 -75.7525 208° Southwest 488 562 40,000  Level Washington Center
Thu 10:45:24 AM 37.8456 -75.8258 205° Southwest 488 562 40,000  Level Washington Center
Thu 10:46:23 AM 37.7181 -75.8675 194° South 488 562 40,000 202 Level Washington Center
Thu 10:47:23 AM 37.5825 -75.8828 185° South 485 558 40,400 694 Climbing Washington Center
Thu 10:48:24 AM 37.4492 -75.9006 186° South 485 558 41,400 934 Climbing Washington Center
Thu 10:49:25 AM 37.3278 -75.9600 201° Southwest 473 544 42,300 793 Climbing Washington Center
Thu 10:50:25 AM 37.1983 -76.0300 203° Southwest 462 532 43,000 356 Climbing Washington Center
Thu 10:51:23 AM 37.0939 -76.0944 206° Southwest 462 532 43,000  Level Washington Center
Thu 10:52:24 AM 36.9683 -76.1586 202° Southwest 473 544 43,000  Level Washington Center
Thu 10:53:25 AM 36.8469 -76.2253 204° Southwest 480 552 43,000  Level Washington Center
Thu 10:54:23 AM 36.7256 -76.2942 204° Southwest 480 552 43,000  Level Washington Center
Thu 10:55:24 AM 36.5917 -76.3706 205° Southwest 480 552 43,000  Level Washington Center
Thu 10:56:24 AM 36.4703 -76.4392 204° Southwest 480 552 43,000  Level Washington Center
Thu 10:57:22 AM 36.3444 -76.5047 203° Southwest 480 552 43,000  Level Washington Center
Thu 10:58:23 AM 36.2208 -76.5731 204° Southwest 480 552 43,000  Level Washington Center
Thu 10:59:24 AM 36.0972 -76.6383 203° Southwest 480 552 43,000  Level Washington Center
Thu 11:00:24 AM 35.9714 -76.7033 203° Southwest 480 552 43,000  Level Washington Center
Thu 11:01:25 AM 35.8478 -76.7708 204° Southwest 485 558 43,000  Level Washington Center
Thu 11:02:25 AM 35.7239 -76.8406 205° Southwest 480 552 43,000  Level Washington Center
Thu 11:03:23 AM 35.6042 -76.9053 204° Southwest 480 552 43,000  Level Washington Center
Thu 11:05:24 AM 35.3586 -77.0361 203° Southwest 480 552 43,000  Level Washington Center
Thu 11:06:25 AM 35.2369 -77.1000 203° Southwest 480 552 43,000  Level Washington Center
Thu 11:07:25 AM 35.1150 -77.1664 204° Southwest 480 552 43,000  Level Washington Center
Thu 11:08:23 AM 34.9911 -77.2297 203° Southwest 480 552 43,000  Level Washington Center
Thu 11:09:24 AM 34.8711 -77.2958 204° Southwest 480 552 43,000  Level Washington Center
Thu 11:10:24 AM 34.7492 -77.3589 203° Southwest 480 552 43,000  Level Washington Center
Thu 11:11:25 AM 34.6314 -77.4194 203° Southwest 480 552 43,000  Level Washington Center
Thu 11:12:23 AM 34.5056 -77.4747 200° South 480 552 43,000  Level Washington Center
Thu 11:13:24 AM 34.3733 -77.5169 195° South 485 558 43,000  Level Washington Center
Thu 11:15:22 AM 34.1297 -77.5894 194° South 479 551 43,000  Level Jacksonville Center
Thu 11:16:22 AM 34.0000 -77.6325 195° South 485 558 43,000  Level Jacksonville Center
Thu 11:17:22 AM 33.8703 -77.6728 194° South 485 558 43,000  Level Jacksonville Center
Thu 11:18:22 AM 33.7386 -77.7181 196° South 485 558 43,000  Level Jacksonville Center
Thu 11:19:22 AM 33.5944 -77.7639 195° South 490 564 43,000  Level Jacksonville Center
Thu 11:20:22 AM 33.4625 -77.8064 195° South 490 564 43,000  Level Jacksonville Center
Thu 11:21:22 AM 33.3328 -77.8461 194° South 490 564 43,000 -50 Level Jacksonville Center
Thu 11:22:22 AM 33.2175 -77.8825 195° South 485 558 42,900  Descending Jacksonville Center
Thu 11:23:22 AM 33.0897 -77.9244 195° South 485 558 43,000 50 Climbing Jacksonville Center
Thu 11:24:21 AM 32.9617 -77.9636 194° South 485 558 43,000  Level Jacksonville Center
Thu 11:25:22 AM 32.8319 -78.0028 194° South 485 558 43,000  Level Jacksonville Center
Thu 11:26:22 AM 32.7042 -78.0444 195° South 485 558 43,000  Level Jacksonville Center
Thu 11:27:22 AM 32.5783 -78.0856 195° South 485 558 43,000  Level Jacksonville Center
Thu 11:28:22 AM 32.4483 -78.1219 193° South 485 558 43,000  Level Jacksonville Center
Thu 11:29:22 AM 32.3203 -78.1606 194° South 485 558 43,000  Level Jacksonville Center
Thu 11:30:22 AM 32.1903 -78.2017 195° South 485 558 43,000  Level Jacksonville Center
Thu 11:31:22 AM 32.0503 -78.2506 196° South 485 558 43,000  Level Jacksonville Center
Thu 11:32:21 AM 31.9242 -78.2886 194° South 485 558 43,000  Level Jacksonville Center
Thu 11:33:21 AM 31.7964 -78.3317 196° South 480 552 43,000  Level Jacksonville Center
Thu 11:34:22 AM 31.6683 -78.3722 195° South 481 554 43,000  Level Jacksonville Center
Thu 11:35:21 AM 31.5425 -78.4100 194° South 465 535 43,000 -50 Level Jacksonville Center
Thu 11:36:22 AM 31.4164 -78.4500 195° South 471 542 42,900  Descending Jacksonville Center
Thu 11:37:21 AM 31.2883 -78.4903 195° South 472 543 43,000 50 Climbing Jacksonville Center
Thu 11:38:22 AM 31.1625 -78.5278 194° South 465 535 43,000  Level Jacksonville Center
Thu 11:39:21 AM 31.0325 -78.5750 197° South 474 545 43,000  Level Jacksonville Center
Thu 11:40:22 AM 30.9167 -78.6069 193° South 474 545 43,000  Level Jacksonville Center
Thu 11:41:21 AM 30.7908 -78.6464 195° South 466 536 43,000  Level Jacksonville Center
Thu 11:42:21 AM 30.6606 -78.6858 195° South 480 552 43,000  Level Jacksonville Center
Thu 11:42:51 AM 30.5914 -78.7106 197° South 476 548 43,000  Level Miami Center
Thu 11:43:51 AM 30.4678 -78.7564 198° South 456 525 43,000  Level Miami Center
Thu 11:44:51 AM 30.3442 -78.8000 197° South 464 534 43,000  Level Miami Center
Thu 11:45:51 AM 30.2164 -78.8456 197° South 474 545 43,000  Level Miami Center
Thu 11:46:51 AM 30.0908 -78.8914 198° South 474 545 43,000  Level Miami Center
Thu 11:47:51 AM 29.9711 -78.9442 201° Southwest 479 551 43,000  Level Miami Center
Thu 11:48:51 AM 29.8456 -78.9847 196° South 474 545 43,000  Level Miami Center
Thu 11:49:51 AM 29.7158 -79.0156 192° South 474 545 43,000  Level Miami Center
Thu 11:50:51 AM 29.6006 -79.0397 190° South 474 545 43,000  Level Miami Center
Thu 11:51:51 AM 29.4669 -79.0583 187° South 474 545 43,000  Level Miami Center
Thu 11:52:51 AM 29.3414 -79.0844 190° South 469 540 43,000  Level Miami Center
Thu 11:53:51 AM 29.2075 -79.1078 189° South 469 540 43,000  Level Miami Center
Thu 11:54:51 AM 29.0756 -79.1314 189° South 476 548 43,000  Level Miami Center
Thu 11:55:51 AM 28.9458 -79.1547 189° South 481 554 43,000  Level Miami Center
Thu 11:56:51 AM 28.8119 -79.1803 189° South 487 560 43,000 -1,300 Level Miami Center
Thu 11:57:51 AM 28.6781 -79.2011 188° South 481 554 40,400 -2,850 Descending Miami Center
Thu 11:58:51 AM 28.5503 -79.2244 189° South 481 554 37,300 -3,250 Descending Miami Center
Thu 11:59:51 AM 28.4164 -79.2478 189° South 481 554 33,900 -3,450 Descending Miami Center
Thu 12:00:51 PM 28.2803 -79.2731 189° South 492 566 30,400 -3,150 Descending Miami Center
Thu 12:01:51 PM 28.1439 -79.3125 194° South 497 572 27,600 -2,550 Descending Miami Center
Thu 12:02:51 PM 28.0239 -79.3783 206° Southwest 488 562 25,300 -2,350 Descending Miami Center
Thu 12:03:51 PM 27.9078 -79.4439 207° Southwest 482 555 22,900 -2,450 Descending Miami Center
Thu 12:04:51 PM 27.7875 -79.5139 207° Southwest 458 527 20,400 -2,250 Descending Miami Center
Thu 12:05:51 PM 27.6800 -79.5722 206° Southwest 444 511 18,400 -2,050 Descending Miami Center
Thu 12:06:51 PM 27.5722 -79.6353 207° Southwest 433 498 16,300 -2,050 Descending Miami Center
Thu 12:07:51 PM 27.4772 -79.6892 207° Southwest 433 498 14,300 -1,900 Descending Miami Center
Thu 12:08:51 PM 27.3803 -79.7431 206° Southwest 413 475 12,500 -1,800 Descending Miami Center
Thu 12:09:51 PM 27.2914 -79.7944 207° Southwest 364 419 10,700 -1,650 Descending Miami Center
Thu 12:10:51 PM 27.2156 -79.8347 205° Southwest 321 369 9,200 -1,350 Descending Miami Center
Thu 12:11:51 PM 27.1436 -79.8747 206° Southwest 299 344 8,000 -1,050 Descending Miami Center
Thu 12:12:51 PM 27.0781 -79.9128 207° Southwest 294 338 7,100 -1,200 Descending Miami Center
Thu 12:13:51 PM 27.0083 -79.9528 207° Southwest 288 331 5,600 -1,500 Descending Miami Center
Thu 12:14:51 PM 26.9364 -80.0000 210° Southwest 288 331 4,100 -800 Descending Miami Center
Thu 12:15:51 PM 26.8747 -80.0519 217° Southwest 283 326 4,000 -50 Descending Miami Center
Thu 12:16:51 PM 26.8150 -80.1036 218° Southwest 278 320 4,000 -500 Level Miami Center
Thu 12:17:51 PM 26.7819 -80.1772 243° Southwest 267 307 3,000 -1,000 Descending Miami Center
Thu 12:19:00 PM 26.6832 -80.0956 271° West  Level Estimated
Thu 12:26:00 PM 26.6832 -80.0956 110° East  Level Estimated
Thu 12:27:00 PM 26.6832 -80.0956 110° East  Level Estimated
Thu 12:28:00 PM 26.6832 -80.0956 110° East  Level Estimated
Thu 12:29:00 PM 26.6832 -80.0956 110° East  Level Estimated
Thu 12:30:00 PM 26.6832 -80.0956 110° East  Level Estimated

Login

Don't have an account? Register now (free) for customized features, flight alerts, and more!